createdAt,value
2023-05-11T00:00:04.487Z,1.17
2023-05-11T00:02:30.817Z,1.01
2023-05-11T00:04:57.199Z,1.03
2023-05-11T00:07:23.494Z,0.89
2023-05-11T00:09:49.794Z,1.09
2023-05-11T00:12:16.104Z,0.82
2023-05-11T00:14:42.394Z,0.81
2023-05-11T00:17:08.689Z,0.85
2023-05-11T00:19:35.004Z,1.01
2023-05-11T00:22:01.304Z,1.02
2023-05-11T00:24:27.611Z,0.90
2023-05-11T00:26:53.942Z,0.93
2023-05-11T00:29:20.240Z,1.08
2023-05-11T00:31:46.582Z,0.88
2023-05-11T00:34:12.948Z,0.99
2023-05-11T00:39:05.560Z,0.87
2023-05-11T00:41:31.882Z,0.97
2023-05-11T00:43:58.181Z,0.84
2023-05-11T00:46:24.520Z,1.09
2023-05-11T00:48:50.970Z,0.90
2023-05-11T00:51:17.264Z,1.17
2023-05-11T00:53:43.569Z,1.21
2023-05-11T00:56:09.937Z,0.96
2023-05-11T00:58:36.221Z,0.98
2023-05-11T01:01:02.581Z,1.06
2023-05-11T01:03:28.956Z,1.00
2023-05-11T01:05:55.246Z,1.20
2023-05-11T01:08:21.541Z,1.05
2023-05-11T01:10:49.028Z,1.14
2023-05-11T01:13:15.323Z,1.24
2023-05-11T01:15:41.613Z,1.36
2023-05-11T01:18:07.955Z,1.07
2023-05-11T01:20:34.270Z,0.99
2023-05-11T01:23:00.574Z,1.08
2023-05-11T01:25:26.919Z,1.02
2023-05-11T01:27:53.220Z,1.05
2023-05-11T01:30:19.716Z,1.12
2023-05-11T01:32:46.256Z,0.98
2023-05-11T01:35:12.597Z,1.10
2023-05-11T01:37:38.890Z,1.20
2023-05-11T01:40:05.204Z,1.14
2023-05-11T01:42:31.552Z,1.18
2023-05-11T01:44:57.835Z,1.23
2023-05-11T01:47:24.200Z,1.14
2023-05-11T01:49:50.508Z,1.11
2023-05-11T01:52:16.799Z,1.21
2023-05-11T01:54:43.116Z,1.34
2023-05-11T01:57:09.410Z,1.01
2023-05-11T01:59:35.723Z,1.08
2023-05-11T02:02:02.072Z,0.93
2023-05-11T02:04:28.360Z,0.98
2023-05-11T02:06:54.670Z,1.12
2023-05-11T02:09:20.974Z,1.00
2023-05-11T02:11:47.256Z,1.10
2023-05-11T02:14:13.554Z,1.20
2023-05-11T02:16:39.895Z,1.13
2023-05-11T02:19:06.230Z,1.14
2023-05-11T02:21:32.554Z,1.32
2023-05-11T02:23:58.884Z,1.29
2023-05-11T02:26:25.180Z,1.18
2023-05-11T02:28:51.600Z,1.13
2023-05-11T02:31:17.990Z,1.18
2023-05-11T02:33:44.328Z,1.07
2023-05-11T02:36:10.635Z,1.03
2023-05-11T02:38:36.937Z,1.10
2023-05-11T02:41:03.235Z,1.04
2023-05-11T02:43:29.537Z,1.14
2023-05-11T02:45:55.853Z,1.27
2023-05-11T02:48:22.147Z,1.11
2023-05-11T02:50:48.454Z,0.98
2023-05-11T02:53:14.773Z,1.05
2023-05-11T02:55:41.109Z,0.99
2023-05-11T02:58:07.464Z,1.15
2023-05-11T03:00:33.877Z,1.29
2023-05-11T03:03:00.329Z,1.19
2023-05-11T03:05:26.697Z,1.28
2023-05-11T03:07:53.197Z,1.59
2023-05-11T03:10:19.731Z,1.39
2023-05-11T03:12:46.254Z,1.39
2023-05-11T03:15:12.577Z,1.47
2023-05-11T03:17:38.906Z,1.38
2023-05-11T03:20:05.219Z,1.32
2023-05-11T03:22:31.526Z,1.23
2023-05-11T03:24:57.854Z,1.11
2023-05-11T03:27:24.153Z,1.11
2023-05-11T03:29:50.480Z,1.27
2023-05-11T03:32:16.924Z,1.34
2023-05-11T03:34:43.371Z,1.51
2023-05-11T03:37:09.691Z,1.50
2023-05-11T03:39:35.979Z,1.26
2023-05-11T03:42:02.290Z,1.48
2023-05-11T03:44:28.623Z,1.30
2023-05-11T03:46:54.931Z,1.39
2023-05-11T03:49:21.259Z,1.35
2023-05-11T03:51:47.579Z,1.31
2023-05-11T03:54:13.865Z,1.35
2023-05-11T03:56:40.175Z,1.27
2023-05-11T03:59:06.540Z,1.33
2023-05-11T04:01:32.843Z,1.35
2023-05-11T04:03:59.201Z,1.46
2023-05-11T04:06:25.621Z,1.35
2023-05-11T04:08:51.930Z,1.19
2023-05-11T04:11:18.223Z,1.40
2023-05-11T04:13:44.578Z,1.47
2023-05-11T04:16:10.938Z,1.37
2023-05-11T04:18:37.372Z,1.38
2023-05-11T04:21:03.728Z,1.42
2023-05-11T04:23:30.039Z,1.33
2023-05-11T04:25:56.338Z,1.43
2023-05-11T04:28:22.659Z,1.16
2023-05-11T04:30:48.960Z,1.33
2023-05-11T04:33:15.246Z,1.30
2023-05-11T04:35:41.564Z,1.36
2023-05-11T04:38:08.079Z,1.31
2023-05-11T04:40:35.115Z,1.26
2023-05-11T04:43:01.456Z,1.29
2023-05-11T04:45:27.765Z,1.20
2023-05-11T04:47:54.120Z,1.15
2023-05-11T04:50:20.639Z,1.20
2023-05-11T04:52:47.058Z,1.05
2023-05-11T04:55:13.350Z,0.87
2023-05-11T04:57:39.669Z,0.97
2023-05-11T05:00:06.019Z,1.05
2023-05-11T05:02:32.389Z,1.13
2023-05-11T05:04:58.728Z,1.25
2023-05-11T05:07:25.028Z,1.06
2023-05-11T05:09:51.314Z,0.90
2023-05-11T05:12:17.646Z,0.88
2023-05-11T05:14:43.954Z,1.15
2023-05-11T05:17:10.322Z,1.09
2023-05-11T05:19:36.705Z,0.98
2023-05-11T05:22:02.991Z,1.15
2023-05-11T05:24:29.328Z,1.19
2023-05-11T05:26:55.712Z,1.10
2023-05-11T05:29:22.139Z,1.21
2023-05-11T05:31:48.440Z,1.43
2023-05-11T05:34:16.439Z,1.50
2023-05-11T05:36:43.719Z,1.69
2023-05-11T05:39:10.264Z,1.25
2023-05-11T05:41:36.586Z,1.53
2023-05-11T05:44:02.886Z,1.41
2023-05-11T05:46:29.218Z,1.35
2023-05-11T05:48:55.579Z,1.37
2023-05-11T05:51:21.879Z,1.32
2023-05-11T05:53:48.175Z,1.18
2023-05-11T05:56:14.492Z,1.32
2023-05-11T05:58:40.861Z,1.23
2023-05-11T06:01:07.166Z,0.95
2023-05-11T06:03:33.730Z,1.24
2023-05-11T06:06:00.204Z,1.10
2023-05-11T06:08:26.513Z,1.25
2023-05-11T06:10:52.834Z,1.11
2023-05-11T06:13:19.287Z,1.38
2023-05-11T06:15:45.580Z,1.17
2023-05-11T06:18:11.924Z,1.36
2023-05-11T06:20:38.250Z,1.15
2023-05-11T06:23:04.546Z,1.44
2023-05-11T06:25:30.954Z,3.00
2023-05-11T06:27:57.267Z,5.66
2023-05-11T06:30:23.586Z,2.48
2023-05-11T06:32:49.927Z,1.63
2023-05-11T06:35:16.229Z,1.81
2023-05-11T06:37:42.512Z,1.29
2023-05-11T06:40:08.836Z,1.28
2023-05-11T06:42:35.139Z,1.61
2023-05-11T06:45:01.577Z,1.24
2023-05-11T06:47:27.973Z,1.36
2023-05-11T06:49:54.322Z,1.36
2023-05-11T06:52:20.619Z,1.47
2023-05-11T06:54:46.951Z,1.35
2023-05-11T06:57:14.501Z,1.24
2023-05-11T06:59:41.092Z,1.44
2023-05-11T07:02:07.407Z,1.29
2023-05-11T07:04:33.764Z,1.11
2023-05-11T07:07:00.167Z,1.46
2023-05-11T07:09:26.539Z,1.40
2023-05-11T07:11:52.870Z,1.19
2023-05-11T07:14:19.213Z,1.07
2023-05-11T07:16:45.578Z,0.94
2023-05-11T07:19:12.037Z,1.17
2023-05-11T07:21:38.358Z,1.16
2023-05-11T07:24:04.695Z,1.08
2023-05-11T07:26:31.236Z,1.13
2023-05-11T07:28:57.542Z,1.23
2023-05-11T07:31:23.927Z,1.33
2023-05-11T07:33:50.239Z,1.53
2023-05-11T07:36:16.517Z,1.17
2023-05-11T07:38:42.820Z,1.19
2023-05-11T07:41:11.560Z,1.34
2023-05-11T07:43:38.675Z,1.20
2023-05-11T07:46:05.142Z,1.20
2023-05-11T07:48:31.452Z,1.30
2023-05-11T07:50:57.737Z,1.14
2023-05-11T07:53:24.045Z,1.06
2023-05-11T07:55:50.339Z,1.28
2023-05-11T07:58:16.766Z,1.29
2023-05-11T08:00:43.118Z,1.00
2023-05-11T08:03:09.575Z,1.19
2023-05-11T08:05:35.960Z,1.40
2023-05-11T08:08:02.476Z,1.27
2023-05-11T08:10:28.798Z,1.27
2023-05-11T08:12:55.100Z,1.11
2023-05-11T08:15:21.493Z,1.30
2023-05-11T08:17:47.939Z,1.21
2023-05-11T08:20:14.253Z,1.35
2023-05-11T08:22:40.572Z,1.32
2023-05-11T08:25:06.864Z,1.52
2023-05-11T08:27:33.179Z,1.53
2023-05-11T08:30:01.948Z,1.41
2023-05-11T08:32:28.336Z,1.31
2023-05-11T08:34:54.762Z,1.23
2023-05-11T08:37:21.161Z,1.39
2023-05-11T08:39:48.039Z,1.45
2023-05-11T08:42:14.494Z,1.35
2023-05-11T08:44:40.815Z,1.42
2023-05-11T08:47:22.134Z,1.40
2023-05-11T08:49:49.398Z,1.55
2023-05-11T08:52:15.683Z,1.44
2023-05-11T08:54:41.988Z,1.60
2023-05-11T08:57:08.423Z,1.40
2023-05-11T08:59:34.804Z,1.46
2023-05-11T09:02:01.097Z,1.43
2023-05-11T09:04:27.408Z,1.45
2023-05-11T09:06:53.698Z,1.72
2023-05-11T09:09:20.008Z,1.46
2023-05-11T09:11:46.320Z,1.36
2023-05-11T09:14:12.637Z,1.37
2023-05-11T09:16:38.990Z,1.39
2023-05-11T09:19:05.421Z,1.21
2023-05-11T09:21:31.826Z,1.36
2023-05-11T09:23:58.271Z,1.29
2023-05-11T09:26:24.623Z,1.09
2023-05-11T09:29:02.340Z,1.14
2023-05-11T09:31:29.882Z,1.17
2023-05-11T09:33:56.268Z,1.03
2023-05-11T09:36:22.563Z,1.08
2023-05-11T09:38:48.928Z,1.06
2023-05-11T09:41:15.224Z,1.01
2023-05-11T09:43:41.511Z,1.11
2023-05-11T09:46:08.004Z,0.95
2023-05-11T09:48:34.386Z,0.96
2023-05-11T09:51:00.675Z,1.05
2023-05-11T09:53:26.975Z,1.20
2023-05-11T09:55:53.267Z,1.03
2023-05-11T09:58:19.570Z,0.87
2023-05-11T10:00:45.908Z,0.76
2023-05-11T10:03:12.277Z,0.80
2023-05-11T10:05:38.603Z,0.80
2023-05-11T10:08:04.929Z,0.71
2023-05-11T10:10:31.235Z,0.70
2023-05-11T10:12:57.528Z,0.70
2023-05-11T10:15:23.850Z,0.86
2023-05-11T10:17:50.213Z,0.70
2023-05-11T10:20:16.654Z,0.92
2023-05-11T10:22:43.105Z,0.86
2023-05-11T10:25:09.400Z,0.64
2023-05-11T10:27:35.688Z,0.68
2023-05-11T10:30:02.025Z,0.77
2023-05-11T10:32:28.352Z,0.80
2023-05-11T10:34:54.912Z,0.82
2023-05-11T10:37:21.350Z,0.87
2023-05-11T10:39:50.126Z,0.96
2023-05-11T10:42:16.881Z,0.82
2023-05-11T10:44:43.232Z,0.75
2023-05-11T10:47:09.513Z,0.85
2023-05-11T10:49:35.848Z,0.86
2023-05-11T10:52:02.231Z,0.82
2023-05-11T10:54:28.529Z,1.24
2023-05-11T10:56:54.837Z,1.31
2023-05-11T10:59:21.191Z,0.99
2023-05-11T11:01:47.537Z,1.09
2023-05-11T11:04:13.936Z,1.20
2023-05-11T11:06:40.244Z,1.14
2023-05-11T11:09:06.530Z,1.18
2023-05-11T11:11:32.820Z,1.08
2023-05-11T11:13:59.137Z,1.04
2023-05-11T11:16:25.465Z,1.18
2023-05-11T11:18:51.827Z,1.19
2023-05-11T11:21:18.176Z,1.24
2023-05-11T11:23:44.536Z,1.39
2023-05-11T11:26:10.836Z,1.41
2023-05-11T11:28:37.220Z,1.13
2023-05-11T11:31:03.552Z,1.18
2023-05-11T11:33:29.864Z,1.00
2023-05-11T11:35:56.185Z,1.06
2023-05-11T11:38:22.478Z,1.19
2023-05-11T11:40:51.927Z,1.24
2023-05-11T11:43:18.721Z,1.23
2023-05-11T11:45:45.010Z,1.47
2023-05-11T11:48:11.404Z,1.09
2023-05-11T11:50:37.833Z,1.17
2023-05-11T11:53:04.166Z,1.09
2023-05-11T11:55:30.465Z,1.07
2023-05-11T11:57:56.794Z,0.76
2023-05-11T12:00:23.098Z,0.75
2023-05-11T12:02:49.526Z,0.74
2023-05-11T12:05:16.007Z,0.89
2023-05-11T12:07:42.423Z,0.96
2023-05-11T12:10:08.770Z,0.86
2023-05-11T12:12:35.176Z,0.73
2023-05-11T12:15:01.594Z,0.98
2023-05-11T12:17:27.997Z,1.23
2023-05-11T12:19:54.541Z,1.14
2023-05-11T12:22:20.837Z,1.23
2023-05-11T12:24:47.119Z,1.28
2023-05-11T12:27:13.458Z,1.15
2023-05-11T12:29:39.768Z,1.34
2023-05-11T12:32:06.106Z,1.37
2023-05-11T12:34:32.467Z,1.23
2023-05-11T12:37:00.251Z,1.19
2023-05-11T12:39:26.827Z,1.03
2023-05-11T12:41:53.147Z,1.40
2023-05-11T12:44:19.445Z,1.21
2023-05-11T12:46:45.760Z,1.12
2023-05-11T12:49:12.159Z,1.21
2023-05-11T12:51:38.450Z,1.26
2023-05-11T12:54:04.748Z,1.41
2023-05-11T12:56:31.112Z,1.38
2023-05-11T12:58:57.419Z,1.22
2023-05-11T13:01:23.778Z,1.23
2023-05-11T13:03:50.205Z,1.54
2023-05-11T13:06:16.569Z,1.41
2023-05-11T13:08:42.860Z,1.24
2023-05-11T13:11:09.409Z,1.54
2023-05-11T13:13:36.083Z,1.48
2023-05-11T13:16:02.487Z,1.28
2023-05-11T13:18:28.914Z,1.47
2023-05-11T13:20:55.243Z,1.36
2023-05-11T13:23:21.532Z,1.28
2023-05-11T13:25:47.851Z,1.41
2023-05-11T13:28:14.192Z,1.46
2023-05-11T13:30:40.549Z,1.38
2023-05-11T13:33:07.047Z,1.68
2023-05-11T13:35:33.418Z,2.04
2023-05-11T13:37:59.724Z,1.84
2023-05-11T13:40:26.080Z,1.95
2023-05-11T13:42:52.369Z,1.71
2023-05-11T13:45:18.870Z,1.83
2023-05-11T13:47:45.839Z,1.97
2023-05-11T13:50:12.244Z,1.94
2023-05-11T13:52:38.580Z,1.56
2023-05-11T13:55:04.911Z,1.62
2023-05-11T13:57:31.264Z,2.27
2023-05-11T13:59:57.588Z,1.99
2023-05-11T14:02:24.045Z,1.95
2023-05-11T14:04:50.375Z,1.76
2023-05-11T14:07:16.671Z,1.55
2023-05-11T14:09:42.990Z,1.60
2023-05-11T14:12:09.581Z,1.26
2023-05-11T14:14:35.942Z,3.04
2023-05-11T14:17:02.300Z,1.51
2023-05-11T14:19:28.639Z,1.59
2023-05-11T14:21:54.947Z,2.06
2023-05-11T14:24:21.278Z,3.05
2023-05-11T14:26:47.610Z,2.30
2023-05-11T14:29:13.941Z,2.33
2023-05-11T14:31:40.894Z,1.88
2023-05-11T14:34:07.207Z,1.85
2023-05-11T14:36:33.530Z,1.99
2023-05-11T14:38:59.855Z,1.55
2023-05-11T14:41:26.162Z,1.53
2023-05-11T14:43:52.522Z,1.30
2023-05-11T14:46:19.104Z,1.39
2023-05-11T14:48:45.435Z,1.37
2023-05-11T14:51:11.737Z,1.43
2023-05-11T14:53:38.061Z,1.47
2023-05-11T14:56:04.364Z,1.15
2023-05-11T14:58:30.646Z,1.16
2023-05-11T15:00:57.006Z,1.09
2023-05-11T15:03:23.352Z,1.03
2023-05-11T15:05:49.662Z,1.10
2023-05-11T15:08:28.474Z,1.29
2023-05-11T15:10:55.800Z,1.25
2023-05-11T15:13:22.445Z,1.13
2023-05-11T15:15:48.811Z,1.18
2023-05-11T15:18:15.127Z,1.16
2023-05-11T15:20:41.432Z,1.11
2023-05-11T15:23:07.747Z,1.00
2023-05-11T15:25:34.049Z,0.92
2023-05-11T15:28:00.370Z,0.94
2023-05-11T15:30:26.654Z,1.21
2023-05-11T15:32:52.973Z,1.12
2023-05-11T15:35:19.452Z,1.22
2023-05-11T15:37:45.942Z,1.07
2023-05-11T15:40:12.240Z,1.15
2023-05-11T15:42:38.573Z,1.00
2023-05-11T15:45:04.873Z,1.02
2023-05-11T15:47:31.173Z,1.12
2023-05-11T15:49:57.508Z,1.02
2023-05-11T15:52:23.809Z,1.05
2023-05-11T15:54:50.111Z,1.07
2023-05-11T15:57:16.426Z,1.62
2023-05-11T15:59:42.727Z,1.06
2023-05-11T16:02:09.060Z,1.12
2023-05-11T16:04:35.375Z,1.06
2023-05-11T16:07:01.688Z,1.25
2023-05-11T16:09:27.980Z,1.16
2023-05-11T16:11:54.334Z,1.15
2023-05-11T16:14:20.622Z,1.02
2023-05-11T16:16:46.973Z,1.06
2023-05-11T16:19:13.421Z,1.01
2023-05-11T16:21:39.814Z,1.10
2023-05-11T16:24:06.118Z,1.29
2023-05-11T16:26:32.463Z,1.53
2023-05-11T16:28:58.765Z,1.61
2023-05-11T16:31:25.085Z,1.62
2023-05-11T16:33:51.433Z,1.71
2023-05-11T16:36:17.739Z,1.56
2023-05-11T16:38:44.032Z,1.69
2023-05-11T16:41:10.372Z,1.55
2023-05-11T16:43:36.747Z,1.59
2023-05-11T16:46:03.062Z,1.59
2023-05-11T16:48:29.415Z,1.33
2023-05-11T16:50:55.742Z,1.26
2023-05-11T16:53:22.074Z,1.37
2023-05-11T16:55:48.391Z,1.20
2023-05-11T16:58:14.697Z,1.17
2023-05-11T17:00:41.010Z,1.17
2023-05-11T17:03:07.410Z,1.14
2023-05-11T17:05:33.724Z,1.28
2023-05-11T17:08:00.031Z,1.42
2023-05-11T17:10:26.362Z,1.40
2023-05-11T17:12:52.681Z,1.53
2023-05-11T17:15:19.003Z,1.36
2023-05-11T17:17:45.421Z,1.36
2023-05-11T17:20:11.757Z,1.60
2023-05-11T17:22:38.064Z,1.56
2023-05-11T17:25:04.379Z,1.49
2023-05-11T17:27:30.669Z,1.48
2023-05-11T17:29:56.967Z,1.56
2023-05-11T17:32:23.390Z,1.60
2023-05-11T17:34:49.850Z,1.69
2023-05-11T17:37:30.758Z,1.69
2023-05-11T17:39:58.325Z,1.58
2023-05-11T17:42:24.621Z,1.63
2023-05-11T17:44:50.923Z,1.83
2023-05-11T17:47:17.236Z,2.22
2023-05-11T17:49:43.541Z,2.08
2023-05-11T17:52:09.842Z,1.75
2023-05-11T17:54:36.163Z,1.78
2023-05-11T17:57:02.466Z,1.68
2023-05-11T17:59:28.763Z,1.94
2023-05-11T18:01:55.253Z,1.63
2023-05-11T18:04:21.689Z,1.97
2023-05-11T18:06:48.019Z,2.11
2023-05-11T18:09:14.336Z,2.22
2023-05-11T18:11:40.700Z,2.63
2023-05-11T18:14:07.003Z,1.84
2023-05-11T18:16:33.344Z,1.59
2023-05-11T18:18:59.741Z,2.11
2023-05-11T18:21:26.076Z,2.34
2023-05-11T18:23:52.450Z,2.30
2023-05-11T18:26:18.753Z,2.40
2023-05-11T18:28:45.097Z,2.07
2023-05-11T18:31:11.502Z,1.67
2023-05-11T18:33:37.850Z,1.69
2023-05-11T18:36:04.178Z,1.70
2023-05-11T18:38:30.538Z,1.76
2023-05-11T18:40:56.839Z,1.84
2023-05-11T18:43:23.133Z,1.80
2023-05-11T18:45:49.451Z,2.86
2023-05-11T18:48:15.760Z,3.70
2023-05-11T18:50:42.052Z,3.42
2023-05-11T18:53:08.369Z,2.74
2023-05-11T18:55:44.836Z,2.80
2023-05-11T18:58:15.615Z,2.18
2023-05-11T19:00:41.960Z,2.40
2023-05-11T19:03:10.402Z,3.39
2023-05-11T19:05:37.530Z,3.92
2023-05-11T19:08:03.844Z,2.91
2023-05-11T19:10:30.152Z,2.81
2023-05-11T19:12:56.496Z,2.32
2023-05-11T19:15:22.783Z,1.81
2023-05-11T19:17:49.107Z,1.93
2023-05-11T19:20:15.454Z,1.74
2023-05-11T19:22:41.761Z,1.70
2023-05-11T19:25:08.062Z,1.68
2023-05-11T19:27:34.424Z,1.64
2023-05-11T19:30:00.738Z,1.70
2023-05-11T19:32:27.161Z,1.81
2023-05-11T19:34:53.576Z,2.09
2023-05-11T19:37:19.881Z,1.94
2023-05-11T19:39:46.506Z,1.89
2023-05-11T19:42:12.833Z,1.86
2023-05-11T19:44:39.139Z,1.87
2023-05-11T19:47:05.438Z,2.07
2023-05-11T19:49:31.769Z,1.99
2023-05-11T19:51:58.063Z,1.80
2023-05-11T19:54:24.360Z,1.89
2023-05-11T19:56:50.685Z,1.81
2023-05-11T19:59:16.983Z,1.92
2023-05-11T20:01:43.311Z,1.99
2023-05-11T20:04:09.803Z,1.63
2023-05-11T20:06:36.124Z,1.78
2023-05-11T20:09:02.425Z,1.74
2023-05-11T20:11:28.730Z,1.64
2023-05-11T20:13:55.014Z,1.70
2023-05-11T20:16:21.378Z,1.68
2023-05-11T20:18:47.991Z,1.80
2023-05-11T20:21:14.430Z,1.81
2023-05-11T20:23:40.736Z,1.66
2023-05-11T20:26:07.054Z,1.52
2023-05-11T20:28:33.344Z,1.46
2023-05-11T20:31:02.670Z,1.78
2023-05-11T20:35:58.229Z,1.59
2023-05-11T20:38:24.561Z,1.68
2023-05-11T20:40:50.877Z,1.79
2023-05-11T20:43:17.173Z,1.74
2023-05-11T20:45:43.556Z,1.76
2023-05-11T20:48:10.046Z,1.74
2023-05-11T20:50:36.363Z,1.57
2023-05-11T20:53:02.658Z,1.70
2023-05-11T20:55:29.008Z,1.77
2023-05-11T20:57:55.318Z,1.73
2023-05-11T21:00:21.822Z,1.69
2023-05-11T21:02:48.464Z,2.00
2023-05-11T21:05:14.874Z,1.80
2023-05-11T21:07:41.201Z,1.66
2023-05-11T21:10:07.598Z,1.65
2023-05-11T21:12:33.907Z,1.66
2023-05-11T21:15:00.262Z,1.67
2023-05-11T21:17:29.731Z,1.83
2023-05-11T21:19:56.051Z,1.72
2023-05-11T21:22:22.405Z,1.96
2023-05-11T21:24:48.774Z,1.89
2023-05-11T21:27:15.106Z,1.74
2023-05-11T21:29:41.427Z,1.85
2023-05-11T21:32:07.762Z,1.72
2023-05-11T21:34:34.076Z,1.86
2023-05-11T21:37:00.376Z,1.94
2023-05-11T21:39:26.747Z,1.93
2023-05-11T21:41:53.051Z,1.89
2023-05-11T21:44:19.346Z,1.79
2023-05-11T21:46:49.022Z,1.57
2023-05-11T21:49:15.396Z,1.79
2023-05-11T21:51:41.701Z,2.03
2023-05-11T21:54:08.051Z,1.77
2023-05-11T21:56:34.372Z,1.76
2023-05-11T21:59:00.676Z,1.80
2023-05-11T22:01:27.048Z,1.73
2023-05-11T22:03:53.472Z,1.63
2023-05-11T22:06:20.948Z,1.66
2023-05-11T22:08:47.267Z,1.61
2023-05-11T22:11:13.578Z,1.68
2023-05-11T22:13:39.926Z,1.84
2023-05-11T22:16:06.326Z,2.14
2023-05-11T22:18:32.817Z,2.00
2023-05-11T22:20:59.181Z,2.05
2023-05-11T22:23:25.536Z,2.36
2023-05-11T22:25:51.831Z,2.06
2023-05-11T22:28:18.264Z,1.97
2023-05-11T22:30:44.626Z,2.00
2023-05-11T22:33:10.926Z,1.90
2023-05-11T22:35:37.317Z,1.77
2023-05-11T22:38:03.726Z,1.83
2023-05-11T22:40:30.044Z,1.87
2023-05-11T22:42:56.357Z,1.77
2023-05-11T22:45:22.744Z,1.65
2023-05-11T22:47:49.216Z,1.84
2023-05-11T22:50:15.544Z,1.75
2023-05-11T22:52:41.853Z,1.72
2023-05-11T22:55:08.158Z,1.71
2023-05-11T22:57:34.448Z,1.96
2023-05-11T23:00:00.792Z,1.89
2023-05-11T23:02:27.208Z,1.81
2023-05-11T23:04:53.569Z,1.77
2023-05-11T23:07:19.929Z,2.01
2023-05-11T23:09:46.256Z,1.93
2023-05-11T23:12:12.555Z,1.79
2023-05-11T23:14:38.900Z,2.04
2023-05-11T23:17:05.207Z,2.15
2023-05-11T23:19:31.619Z,1.83
2023-05-11T23:21:58.052Z,2.00
2023-05-11T23:24:24.352Z,2.04
2023-05-11T23:26:50.664Z,1.97
2023-05-11T23:29:17.027Z,1.99
2023-05-11T23:31:43.373Z,2.02
2023-05-11T23:34:09.680Z,2.08
2023-05-11T23:36:36.001Z,2.25
2023-05-11T23:39:02.309Z,2.12
2023-05-11T23:41:28.616Z,2.17
2023-05-11T23:43:54.951Z,2.06
2023-05-11T23:46:21.299Z,2.24
2023-05-11T23:48:48.236Z,2.06
2023-05-11T23:51:14.608Z,2.17
2023-05-11T23:53:40.927Z,2.33
2023-05-11T23:56:07.239Z,2.22
2023-05-11T23:58:33.675Z,2.33
